Portageville, NY (14536)

9:54 PM EDT on August 31, 2016 (GMT -0400)
APRSWXNET | | Change Station

Elev 958 ft 42.50 °N, 78.00 °W | Updated 29 minutes ago

Partly Cloudy
Partly Cloudy
70 °F
Feels Like 70 °F
N
0
Wind Variable Wind from NW
Gusts 1.0 mph

Today
High -- | Low -- °F
--% Chance of Precip.
Yesterday
High -- | Low -- °F
Precip. -- in
Pressure 29.93 in
Visibility 10.0 miles
Clouds Few 9500 ft
Dew Point 67 °F
Humidity 89%
Rainfall in
Snow Depth Not available.
6:36 AM 7:47 PM
Waning Crescent, 0% visible
METAR KDSV 010054Z AUTO 18003KT 10SM FEW095 23/19 A2991 RMK AO2 SLP133 T02280189
Pressure 29.93 in
Visibility 10.0 miles
Clouds Few 9500 ft
Dew Point 67 °F
Humidity 89%
Rainfall in
Snow Depth Not available.
6:36 AM 7:47 PM
Waning Crescent, 0% visible
METAR KDSV 010054Z AUTO 18003KT 10SM FEW095 23/19 A2991 RMK AO2 SLP133 T02280189

10-Day Weather Forecast

Almanac

Astronomy

Aug. 31, 2016 Rise Set
Actual Time
Civil Twilight
Nautical Twilight
Astronomical Twilight
Moon
Length of Visible Light
Length of Day
Tomorrow will be .
, % of the Moon is Illuminated

Today's Extremes

State Highs State Lows

Community

WunderPhotos

Upload Photos

1,936,266 photos uploaded!

WunderBlog® & News

Nearby

Air Quality

  Air Quality AQ Index Pollutant
Not available.

Snow Depth

Station Depth Elevation

Earthquake Activity

City Distance Mag. Time & Date
Minimum magnitude displayed is 2.5.

Coastal Water Temperatures

Place Temperature

Stations

Nearby Weather Stations

Station Location Temp. Windchill Dew Point Humidity Wind Precip. Elev Updated Type
                   

Watches & Warnings

There are currently no watches in effect.